createdAt,value
2019-02-18T00:00:47.066Z,5.60
2019-02-18T00:03:17.206Z,5.50
2019-02-18T00:05:46.366Z,5.60
2019-02-18T00:08:15.658Z,5.70
2019-02-18T00:10:45.076Z,5.60
2019-02-18T00:13:14.468Z,5.60
2019-02-18T00:15:43.771Z,5.50
2019-02-18T00:18:13.300Z,5.50
2019-02-18T00:20:42.384Z,5.50
2019-02-18T00:23:11.456Z,5.40
2019-02-18T00:25:40.752Z,5.30
2019-02-18T00:28:09.966Z,5.30
2019-02-18T00:30:39.527Z,5.30
2019-02-18T00:33:08.642Z,5.30
2019-02-18T00:35:37.934Z,5.30
2019-02-18T00:38:07.222Z,5.30
2019-02-18T00:40:36.594Z,5.30
2019-02-18T00:43:05.791Z,5.20
2019-02-18T00:45:35.137Z,5.20
2019-02-18T00:48:04.769Z,5.20
2019-02-18T00:50:34.596Z,5.20
2019-02-18T00:53:04.273Z,5.10
2019-02-18T00:55:34.000Z,5.10
2019-02-18T00:58:05.369Z,5.00
2019-02-18T01:00:34.380Z,5.00
2019-02-18T01:03:05.198Z,5.00
2019-02-18T01:05:34.313Z,5.00
2019-02-18T01:08:04.323Z,5.00
2019-02-18T01:10:38.179Z,5.00
2019-02-18T01:13:12.622Z,5.00
2019-02-18T01:15:43.104Z,5.00
2019-02-18T01:18:12.932Z,5.00
2019-02-18T01:20:43.395Z,5.00
2019-02-18T01:23:13.506Z,5.00
2019-02-18T01:25:42.997Z,4.90
2019-02-18T01:28:12.136Z,4.90
2019-02-18T01:30:42.876Z,4.80
2019-02-18T01:33:14.527Z,4.80
2019-02-18T01:35:43.962Z,4.80
2019-02-18T01:38:13.187Z,4.80
2019-02-18T01:40:42.568Z,4.80
2019-02-18T01:43:12.104Z,4.90
2019-02-18T01:45:41.375Z,4.90
2019-02-18T01:48:10.986Z,4.90
2019-02-18T01:50:41.601Z,5.00
2019-02-18T01:53:11.488Z,5.00
2019-02-18T01:55:40.663Z,5.00
2019-02-18T01:58:09.790Z,5.00
2019-02-18T02:00:38.905Z,5.00
2019-02-18T02:03:07.937Z,4.90
2019-02-18T02:05:37.006Z,4.90
2019-02-18T02:08:06.222Z,4.80
2019-02-18T02:10:35.714Z,4.60
2019-02-18T02:13:16.375Z,4.60
2019-02-18T02:15:45.446Z,4.60
2019-02-18T02:18:14.460Z,4.60
2019-02-18T02:20:43.489Z,4.60
2019-02-18T02:23:12.506Z,4.60
2019-02-18T02:25:43.058Z,4.60
2019-02-18T02:28:12.248Z,4.50
2019-02-18T02:30:41.587Z,4.40
2019-02-18T02:33:11.466Z,4.40
2019-02-18T02:35:40.580Z,4.30
2019-02-18T02:38:09.635Z,4.30
2019-02-18T02:40:38.696Z,4.20
2019-02-18T02:43:07.740Z,4.20
2019-02-18T02:45:36.815Z,4.20
2019-02-18T02:48:06.089Z,4.20
2019-02-18T02:50:35.120Z,4.10
2019-02-18T02:53:04.266Z,4.00
2019-02-18T02:55:33.282Z,4.00
2019-02-18T02:58:02.639Z,3.90
2019-02-18T03:00:31.806Z,3.80
2019-02-18T03:03:00.790Z,3.80
2019-02-18T03:05:29.843Z,3.80
2019-02-18T03:07:58.901Z,3.80
2019-02-18T03:10:29.122Z,3.80
2019-02-18T03:12:58.342Z,3.70
2019-02-18T03:15:27.373Z,3.70
2019-02-18T03:17:56.501Z,3.60
2019-02-18T03:20:25.641Z,3.60
2019-02-18T03:22:54.830Z,3.60
2019-02-18T03:25:25.563Z,3.60
2019-02-18T03:28:01.859Z,3.60
2019-02-18T03:30:45.737Z,3.70
2019-02-18T03:33:17.310Z,3.70
2019-02-18T03:35:46.414Z,3.60
2019-02-18T03:38:15.439Z,3.60
2019-02-18T03:40:44.397Z,3.70
2019-02-18T03:43:13.481Z,3.70
2019-02-18T03:45:42.749Z,3.70
2019-02-18T03:48:11.765Z,3.80
2019-02-18T03:50:41.242Z,3.80
2019-02-18T03:53:10.582Z,3.80
2019-02-18T03:55:40.918Z,4.00
2019-02-18T03:58:10.198Z,4.00
2019-02-18T04:00:40.595Z,4.10
2019-02-18T04:03:09.819Z,4.00
2019-02-18T04:05:39.256Z,4.00
2019-02-18T04:08:08.460Z,4.10
2019-02-18T04:10:37.876Z,4.00
2019-02-18T04:13:07.054Z,4.00
2019-02-18T04:15:36.215Z,4.10
2019-02-18T04:18:05.391Z,4.10
2019-02-18T04:20:34.443Z,4.20
2019-02-18T04:23:03.582Z,4.10
2019-02-18T04:25:32.850Z,4.00
2019-02-18T04:28:01.956Z,3.90
2019-02-18T04:30:31.155Z,3.80
2019-02-18T04:33:00.116Z,3.80
2019-02-18T04:35:29.178Z,3.80
2019-02-18T04:37:58.225Z,3.80
2019-02-18T04:40:27.402Z,3.90
2019-02-18T04:42:56.515Z,3.90
2019-02-18T04:45:25.652Z,3.90
2019-02-18T04:47:54.691Z,3.90
2019-02-18T04:50:23.763Z,3.90
2019-02-18T04:52:52.845Z,3.90
2019-02-18T04:55:22.026Z,3.90
2019-02-18T04:57:51.174Z,3.90
2019-02-18T05:00:20.421Z,3.80
2019-02-18T05:02:49.413Z,3.70
2019-02-18T05:05:18.748Z,3.70
2019-02-18T05:07:48.061Z,3.60
2019-02-18T05:10:23.548Z,3.60
2019-02-18T05:12:52.572Z,3.60
2019-02-18T05:15:21.615Z,3.60
2019-02-18T05:17:50.725Z,3.60
2019-02-18T05:20:19.776Z,3.60
2019-02-18T05:22:48.879Z,3.60
2019-02-18T05:25:18.392Z,3.60
2019-02-18T05:27:47.346Z,3.60
2019-02-18T05:30:16.449Z,3.60
2019-02-18T05:32:45.607Z,3.60
2019-02-18T05:35:14.644Z,3.60
2019-02-18T05:37:43.729Z,3.60
2019-02-18T05:40:12.817Z,3.50
2019-02-18T05:42:41.857Z,3.50
2019-02-18T05:45:11.152Z,3.40
2019-02-18T05:47:40.407Z,3.30
2019-02-18T05:50:09.463Z,3.20
2019-02-18T05:52:38.594Z,3.20
2019-02-18T05:55:07.704Z,3.30
2019-02-18T05:57:36.822Z,3.30
2019-02-18T06:00:07.284Z,3.30
2019-02-18T06:02:36.421Z,3.30
2019-02-18T06:05:05.811Z,3.30
2019-02-18T06:07:34.892Z,3.30
2019-02-18T06:10:04.961Z,3.30
2019-02-18T06:12:34.140Z,3.30
2019-02-18T06:15:03.234Z,3.30
2019-02-18T06:17:32.310Z,3.20
2019-02-18T06:20:01.430Z,3.20
2019-02-18T06:22:30.747Z,3.10
2019-02-18T06:25:00.427Z,3.10
2019-02-18T06:27:29.326Z,3.20
2019-02-18T06:29:58.394Z,3.20
2019-02-18T06:32:27.507Z,3.20
2019-02-18T06:34:56.582Z,3.20
2019-02-18T06:37:25.614Z,3.20
2019-02-18T06:39:54.636Z,3.20
2019-02-18T06:42:23.722Z,3.20
2019-02-18T06:44:57.872Z,3.30
2019-02-18T06:47:28.998Z,3.40
2019-02-18T06:49:58.026Z,3.40
2019-02-18T06:52:27.214Z,3.50
2019-02-18T06:54:56.300Z,3.50
2019-02-18T06:57:36.033Z,3.50
2019-02-18T07:00:12.261Z,3.50
2019-02-18T07:02:50.536Z,3.50
2019-02-18T07:05:28.808Z,3.50
2019-02-18T07:08:04.139Z,3.60
2019-02-18T07:10:40.490Z,3.60
2019-02-18T07:13:09.759Z,3.60
2019-02-18T07:15:39.524Z,3.70
2019-02-18T07:18:08.608Z,3.80
2019-02-18T07:20:37.954Z,3.90
2019-02-18T07:23:07.076Z,4.10
2019-02-18T07:25:36.135Z,4.10
2019-02-18T07:28:05.243Z,4.00
2019-02-18T07:30:34.270Z,4.00
2019-02-18T07:33:03.435Z,4.10
2019-02-18T07:35:32.496Z,4.00
2019-02-18T07:38:01.666Z,4.10
2019-02-18T07:40:31.147Z,4.20
2019-02-18T07:43:00.717Z,4.20
2019-02-18T07:45:30.345Z,4.30
2019-02-18T07:47:59.451Z,4.30
2019-02-18T07:50:28.710Z,4.40
2019-02-18T07:52:58.142Z,4.40
2019-02-18T07:55:27.188Z,4.50
2019-02-18T07:57:56.232Z,4.60
2019-02-18T08:00:25.304Z,4.60
2019-02-18T08:02:54.466Z,4.80
2019-02-18T08:05:23.676Z,4.90
2019-02-18T08:07:53.078Z,5.00
2019-02-18T08:10:22.066Z,5.60
2019-02-18T08:12:51.426Z,7.20
2019-02-18T08:15:20.728Z,9.00
2019-02-18T08:17:49.793Z,11.00
2019-02-18T08:20:18.942Z,12.20
2019-02-18T08:22:48.090Z,12.70
2019-02-18T08:25:17.149Z,13.50
2019-02-18T08:27:47.452Z,14.70
2019-02-18T08:30:16.592Z,15.10
2019-02-18T08:32:46.795Z,13.50
2019-02-18T08:35:15.829Z,12.80
2019-02-18T08:37:44.900Z,13.50
2019-02-18T08:40:22.011Z,14.40
2019-02-18T08:42:43.469Z,14.20
2019-02-18T08:45:12.773Z,15.00
2019-02-18T08:47:41.986Z,15.60
2019-02-18T08:50:11.688Z,15.90
2019-02-18T08:52:40.715Z,15.90
2019-02-18T08:55:11.733Z,15.90
2019-02-18T08:57:40.748Z,16.30
2019-02-18T09:00:12.906Z,17.10
2019-02-18T09:02:41.990Z,16.20
2019-02-18T09:05:11.175Z,16.40
2019-02-18T09:07:40.458Z,16.00
2019-02-18T09:10:10.451Z,15.40
2019-02-18T09:12:39.988Z,16.20
2019-02-18T09:15:09.592Z,16.20
2019-02-18T09:17:38.660Z,15.70
2019-02-18T09:20:08.463Z,15.70
2019-02-18T09:22:42.794Z,16.50
2019-02-18T09:25:20.595Z,16.50
2019-02-18T09:27:51.598Z,16.90
2019-02-18T09:30:23.434Z,16.50
2019-02-18T09:32:52.482Z,16.40
2019-02-18T09:35:21.458Z,16.80
2019-02-18T09:37:50.585Z,17.50
2019-02-18T09:40:19.616Z,16.80
2019-02-18T09:42:48.864Z,18.30
2019-02-18T09:45:17.940Z,19.10
2019-02-18T09:47:46.938Z,19.40
2019-02-18T09:50:16.198Z,19.40
2019-02-18T09:52:45.563Z,19.50
2019-02-18T09:55:14.637Z,19.80
2019-02-18T09:57:43.885Z,19.10
2019-02-18T10:00:12.940Z,20.10
2019-02-18T10:02:41.976Z,20.00
2019-02-18T10:05:11.131Z,19.50
2019-02-18T10:07:41.295Z,19.50
2019-02-18T10:10:10.614Z,19.00
2019-02-18T10:12:39.634Z,19.60
2019-02-18T10:15:08.896Z,20.20
2019-02-18T10:17:37.962Z,20.00
2019-02-18T10:20:07.797Z,20.80
2019-02-18T10:22:36.911Z,22.00
2019-02-18T10:25:07.016Z,21.10
2019-02-18T10:27:36.151Z,21.20
2019-02-18T10:30:05.545Z,21.00
2019-02-18T10:32:34.855Z,21.30
2019-02-18T10:35:04.079Z,21.30
2019-02-18T10:37:33.055Z,20.00
2019-02-18T10:40:02.202Z,20.40
2019-02-18T10:42:31.232Z,19.90
2019-02-18T10:45:00.405Z,19.50
2019-02-18T10:47:29.286Z,20.10
2019-02-18T10:49:58.405Z,21.20
2019-02-18T10:52:27.331Z,19.60
2019-02-18T10:54:56.588Z,20.80
2019-02-18T10:57:25.664Z,21.60
2019-02-18T10:59:54.686Z,21.60
2019-02-18T11:02:23.812Z,21.80
2019-02-18T11:04:52.877Z,22.10
2019-02-18T11:07:22.225Z,21.30
2019-02-18T11:09:51.694Z,23.10
2019-02-18T11:12:20.814Z,23.30
2019-02-18T11:14:49.887Z,23.60
2019-02-18T11:17:18.986Z,23.00
2019-02-18T11:19:48.978Z,22.60
2019-02-18T11:22:18.066Z,22.60
2019-02-18T11:24:47.292Z,22.60
2019-02-18T11:27:16.526Z,23.10
2019-02-18T11:29:45.610Z,23.20
2019-02-18T11:32:14.791Z,22.00
2019-02-18T11:34:43.744Z,20.60
2019-02-18T11:37:13.804Z,20.50
2019-02-18T11:39:41.842Z,20.40
2019-02-18T11:42:10.915Z,21.20
2019-02-18T11:44:39.969Z,21.30
2019-02-18T11:47:09.208Z,21.90
2019-02-18T11:49:38.405Z,21.60
2019-02-18T11:52:07.421Z,20.90
2019-02-18T11:54:36.716Z,21.70
2019-02-18T11:57:05.959Z,22.00
2019-02-18T11:59:34.934Z,22.60
2019-02-18T12:02:04.190Z,22.30
2019-02-18T12:04:33.217Z,22.80
2019-02-18T12:07:02.888Z,22.60
2019-02-18T12:09:31.908Z,23.20
2019-02-18T12:12:01.078Z,22.90
2019-02-18T12:14:30.288Z,22.60
2019-02-18T12:16:59.562Z,22.20
2019-02-18T12:19:28.644Z,22.00
2019-02-18T12:21:57.778Z,21.30
2019-02-18T12:24:27.240Z,22.30
2019-02-18T12:26:56.357Z,22.00
2019-02-18T12:29:26.459Z,21.40
2019-02-18T12:31:54.572Z,20.60
2019-02-18T12:34:23.826Z,20.30
2019-02-18T12:36:52.966Z,20.40
2019-02-18T12:39:22.868Z,20.10
2019-02-18T12:41:52.536Z,19.00
2019-02-18T12:44:21.738Z,19.90
2019-02-18T12:46:50.904Z,19.60
2019-02-18T12:49:19.917Z,20.60
2019-02-18T12:51:49.130Z,21.10
2019-02-18T12:54:18.164Z,20.50
2019-02-18T12:56:47.920Z,20.50
2019-02-18T12:59:17.022Z,20.80
2019-02-18T13:01:46.370Z,21.20
2019-02-18T13:04:16.034Z,20.60
2019-02-18T13:06:45.380Z,19.90
2019-02-18T13:09:15.110Z,20.00
2019-02-18T13:11:44.292Z,20.10
2019-02-18T13:14:13.853Z,20.30
2019-02-18T13:16:42.949Z,19.90
2019-02-18T13:19:14.014Z,20.00
2019-02-18T13:21:43.954Z,19.30
2019-02-18T13:24:14.506Z,18.90
2019-02-18T13:26:43.489Z,18.80
2019-02-18T13:29:12.579Z,18.90
2019-02-18T13:31:42.066Z,19.40
2019-02-18T13:34:11.545Z,19.40
2019-02-18T13:36:40.673Z,18.80
2019-02-18T13:39:10.114Z,18.30
2019-02-18T13:41:40.150Z,18.60
2019-02-18T13:44:09.498Z,18.40
2019-02-18T13:46:38.855Z,17.90
2019-02-18T13:49:10.390Z,18.20
2019-02-18T13:51:39.557Z,18.10
2019-02-18T13:54:09.765Z,18.30
2019-02-18T13:56:38.922Z,18.70
2019-02-18T13:59:08.147Z,18.80
2019-02-18T14:01:37.408Z,18.30
2019-02-18T14:04:07.316Z,18.00
2019-02-18T14:06:36.809Z,18.50
2019-02-18T14:09:07.246Z,18.50
2019-02-18T14:11:36.548Z,18.30
2019-02-18T14:14:05.778Z,17.70
2019-02-18T14:16:35.622Z,17.20
2019-02-18T14:19:04.954Z,16.80
2019-02-18T14:21:34.102Z,16.50
2019-02-18T14:24:03.365Z,16.20
2019-02-18T14:26:32.674Z,15.90
2019-02-18T14:29:02.869Z,15.70
2019-02-18T14:31:32.730Z,15.60
2019-02-18T14:34:02.052Z,15.50
2019-02-18T14:36:31.244Z,15.40
2019-02-18T14:39:00.508Z,15.30
2019-02-18T14:41:29.760Z,15.30
2019-02-18T14:43:58.824Z,15.20
2019-02-18T14:46:27.979Z,15.20
2019-02-18T14:48:57.118Z,15.20
2019-02-18T14:51:26.280Z,15.20
2019-02-18T14:53:55.533Z,15.10
2019-02-18T14:56:25.078Z,15.00
2019-02-18T14:58:54.480Z,15.00
2019-02-18T15:01:23.832Z,15.00
2019-02-18T15:03:52.994Z,15.00
2019-02-18T15:06:22.282Z,15.00
2019-02-18T15:08:51.528Z,14.90
2019-02-18T15:11:20.718Z,14.80
2019-02-18T15:13:50.060Z,14.80
2019-02-18T15:16:19.200Z,14.70
2019-02-18T15:18:48.293Z,14.70
2019-02-18T15:21:17.630Z,14.60
2019-02-18T15:23:47.046Z,14.60
2019-02-18T15:26:16.072Z,14.60
2019-02-18T15:28:46.622Z,14.50
2019-02-18T15:31:16.320Z,14.50
2019-02-18T15:33:45.569Z,14.40
2019-02-18T15:36:18.293Z,14.40
2019-02-18T15:38:48.610Z,14.30
2019-02-18T15:41:20.031Z,14.20
2019-02-18T15:43:49.600Z,14.20
2019-02-18T15:46:18.683Z,14.10
2019-02-18T15:48:47.840Z,14.00
2019-02-18T15:51:17.207Z,14.00
2019-02-18T15:53:46.280Z,13.90
2019-02-18T15:56:15.327Z,13.90
2019-02-18T15:58:44.414Z,13.80
2019-02-18T16:01:13.820Z,13.80
2019-02-18T16:03:42.828Z,13.70
2019-02-18T16:06:12.843Z,13.70
2019-02-18T16:08:41.179Z,13.60
2019-02-18T16:11:16.668Z,13.60
2019-02-18T16:13:45.918Z,13.50
2019-02-18T16:16:15.250Z,13.40
2019-02-18T16:18:44.358Z,13.40
2019-02-18T16:21:14.070Z,13.30
2019-02-18T16:23:43.252Z,13.20
2019-02-18T16:26:12.412Z,13.10
2019-02-18T16:28:41.521Z,13.00
2019-02-18T16:31:10.557Z,13.00
2019-02-18T16:33:42.534Z,12.90
2019-02-18T16:36:12.110Z,12.90
2019-02-18T16:38:41.160Z,12.70
2019-02-18T16:41:10.612Z,12.50
2019-02-18T16:43:39.736Z,12.50
2019-02-18T16:46:08.850Z,12.40
2019-02-18T16:48:39.674Z,12.20
2019-02-18T16:51:21.944Z,12.20
2019-02-18T16:53:52.631Z,12.10
2019-02-18T16:56:22.690Z,12.10
2019-02-18T16:58:52.468Z,12.10
2019-02-18T17:01:23.236Z,12.10
2019-02-18T17:03:53.718Z,12.00
2019-02-18T17:06:24.434Z,12.00
2019-02-18T17:08:57.148Z,12.00
2019-02-18T17:11:31.530Z,11.90
2019-02-18T17:14:16.300Z,11.90
2019-02-18T17:16:46.862Z,11.80
2019-02-18T17:19:26.652Z,11.70
2019-02-18T17:21:57.101Z,11.60
2019-02-18T17:24:30.422Z,11.60
2019-02-18T17:27:01.050Z,11.50
2019-02-18T17:29:32.736Z,11.50
2019-02-18T17:32:03.375Z,11.50
2019-02-18T17:34:35.514Z,11.50
2019-02-18T17:37:05.708Z,11.50
2019-02-18T17:39:37.742Z,11.40
2019-02-18T17:44:46.888Z,11.30
2019-02-18T17:47:19.236Z,11.30
2019-02-18T17:49:49.736Z,11.20
2019-02-18T17:52:20.970Z,11.20
2019-02-18T17:54:51.220Z,11.20
2019-02-18T17:57:22.051Z,11.20
2019-02-18T17:59:51.983Z,11.10
2019-02-18T18:02:22.248Z,11.00
2019-02-18T18:04:54.194Z,10.90
2019-02-18T18:07:23.224Z,10.80
2019-02-18T18:09:52.312Z,10.70
2019-02-18T18:12:21.624Z,10.50
2019-02-18T18:14:50.839Z,10.50
2019-02-18T18:17:20.652Z,10.50
2019-02-18T18:19:49.740Z,10.50
2019-02-18T18:22:19.129Z,10.50
2019-02-18T18:24:48.520Z,10.40
2019-02-18T18:27:17.731Z,10.30
2019-02-18T18:29:46.909Z,10.20
2019-02-18T18:32:16.265Z,10.10
2019-02-18T18:34:46.126Z,10.10
2019-02-18T18:37:15.368Z,10.10
2019-02-18T18:39:46.442Z,10.10
2019-02-18T18:42:15.585Z,10.10
2019-02-18T18:44:45.669Z,10.10
2019-02-18T18:47:18.091Z,10.10
2019-02-18T18:49:54.191Z,10.10
2019-02-18T18:52:24.930Z,10.00
2019-02-18T18:54:54.446Z,9.90
2019-02-18T18:57:25.310Z,9.90
2019-02-18T18:59:56.968Z,9.80
2019-02-18T19:02:26.156Z,9.90
2019-02-18T19:04:55.768Z,9.70
2019-02-18T19:07:25.007Z,9.60
2019-02-18T19:09:54.351Z,9.60
2019-02-18T19:12:24.136Z,9.60
2019-02-18T19:14:53.414Z,9.60
2019-02-18T19:17:22.550Z,9.50
2019-02-18T19:19:57.664Z,9.40
2019-02-18T19:22:21.309Z,9.30
2019-02-18T19:24:50.442Z,9.30
2019-02-18T19:27:20.068Z,9.30
2019-02-18T19:29:53.336Z,9.20
2019-02-18T19:35:03.591Z,9.20
2019-02-18T19:37:36.221Z,9.20
2019-02-18T19:40:14.854Z,9.20
2019-02-18T19:42:46.522Z,9.20
2019-02-18T19:45:30.613Z,9.10
2019-02-18T19:48:09.160Z,9.10
2019-02-18T19:50:56.208Z,9.00
2019-02-18T19:53:45.415Z,9.00
2019-02-18T19:56:50.904Z,8.90
2019-02-18T20:03:05.852Z,8.90
2019-02-18T20:05:41.064Z,8.80
2019-02-18T20:08:15.538Z,8.70
2019-02-18T20:11:02.778Z,8.70
